ePrivacy and GPDR Cookie Consent by Cookie Consent
EmailTwitter


Observations de surface / France / LFMP (07747)

Régions: Québec | Canada | États-Unis | Europe | France | UK | Ailleurs
Station
Affichage
Infos & localisation pour LFMP (07747) | Aide pour décoder les METARs

Observations prises le 2021-09-18 à 07H30 UTC à PERPIGNAN/RIVESA, FR (LFMP)

Température: 21.0 Celsius

Point de rosée: 16.0 Celsius

Humidité relative: 73%

Indice Humidex 26.

Vents: Ouest à 6 km/h ou 3 noeuds.

Pression au niveau moyen de la mer: 101.40 kilopascals.

Observation METAR:

LFMP 180730Z AUTO 28003KT CAVOK 21/16 Q1014 NOSIG=